Ages, Kentucky
Current Conditions -  °F | °C
As of 5:55 PM on Tuesday 21 Oct 2014 (Local Time) from KI35 Reporting Station
Overcast Overcast  
Wind Chill: 54°   Ceiling: 4800
Heat Index: 54°   Visibility: 10mi
Dew Point: 37°   Wind: 3mph
Humidity: 54%   Direction: 30°NNE
Pressure: 30.06"   Gusts: NA
Location:  36.8576°N, 83.2467°W
Report Text: KI35 212155Z AUTO 03003KT 10SM SCT041 BKN048 OVC060 12/03 A3006 RMK AO1
Loading
Personal Weather Stations






























Interactive Weather Map
Tropical Storm Tracking
New forecast layout! Learn more

10-Day Weather Forecast

Advertisements
Track Severe Weather on mobile